This is the latest recevied weather packets stored in our database for station/object SP6W-10. If no packets are shown the sender has not sent any weather packets the latest 10 day(s).
| Time | Temp. | Humidity | Pressure | Rain* | Wind** | Luminosity | Snow |
|---|---|---|---|---|---|---|---|
| 1777497178 | 27.22° C | 17% | 1030.9 hPa | - | - | - | - |
| 1777493575 | 27.78° C | 17% | 1030.9 hPa | - | - | - | - |
| 1777491774 | 28.33° C | 16% | 1030.6 hPa | - | - | - | - |
| 1777489974 | 27.78° C | 15% | 1030.5 hPa | - | - | - | - |
| 1777488174 | 27.78° C | 14% | 1030.2 hPa | - | - | - | - |
| 1777486374 | 28.33° C | 13% | 1029.9 hPa | - | - | - | - |
| 1777484577 | 28.33° C | 13% | 1029.8 hPa | - | - | - | - |
| 1777482777 | 28.89° C | 13% | 1029.6 hPa | - | - | - | - |
| 1777480977 | 28.33° C | 13% | 1029.4 hPa | - | - | - | - |
| 1777479177 | 27.78° C | 14% | 1029.3 hPa | - | - | - | - |
| 1777475577 | 28.33° C | 14% | 1029.2 hPa | - | - | - | - |
| 1777470176 | 27.22° C | 15% | 1029 hPa | - | - | - | - |
| 1777468376 | 27.22° C | 14% | 1029 hPa | - | - | - | - |
| 1777464776 | 25.56° C | 17% | 1028.9 hPa | - | - | - | - |
| 1777461176 | 24.44° C | 18% | 1029 hPa | - | - | - | - |
| 1777459376 | 23.89° C | 18% | 1028.9 hPa | - | - | - | - |
| 1777455776 | 23.89° C | 18% | 1029.1 hPa | - | - | - | - |
| 1777453979 | 23.89° C | 18% | 1029.2 hPa | - | - | - | - |
| 1777450376 | 23.89° C | 20% | 1029.2 hPa | - | - | - | - |
| 1777444976 | 24.44° C | 19% | 1028.8 hPa | - | - | - | - |
| 1777443172 | 24.44° C | 20% | 1028.5 hPa | - | - | - | - |
| 1777441372 | 24.44° C | 22% | 1028.1 hPa | - | - | - | - |
| 1777437772 | 24.44° C | 20% | 1027.5 hPa | - | - | - | - |
| 1777435972 | 25° C | 19% | 1027.3 hPa | - | - | - | - |
| 1777434172 | 25° C | 20% | 1027 hPa | - | - | - | - |
* Rain since midnight (hover to see other rain measurements)
** Current wind speed in m/s (hover to see current wind gust speed)